createdAt,value
2022-07-26T00:03:36.973Z,77.70
2022-07-26T00:09:07.094Z,77.50
2022-07-26T00:14:41.355Z,77.50
2022-07-26T00:20:14.243Z,77.50
2022-07-26T00:25:43.585Z,77.60
2022-07-26T00:31:15.324Z,77.90
2022-07-26T00:36:44.883Z,78.50
2022-07-26T00:42:16.455Z,78.40
2022-07-26T00:47:49.355Z,79.30
2022-07-26T00:53:23.007Z,79.40
2022-07-26T00:58:54.157Z,79.30
2022-07-26T01:04:27.872Z,79.20
2022-07-26T01:10:05.392Z,79.20
2022-07-26T01:15:38.858Z,79.30
2022-07-26T01:21:14.543Z,79.50
2022-07-26T01:26:46.856Z,79.60
2022-07-26T01:32:18.025Z,79.70
2022-07-26T01:37:50.106Z,80.00
2022-07-26T01:43:21.170Z,80.40
2022-07-26T01:48:52.904Z,81.00
2022-07-26T01:54:24.607Z,81.00
2022-07-26T01:59:56.506Z,81.10
2022-07-26T02:05:29.307Z,81.20
2022-07-26T02:11:03.415Z,81.10
2022-07-26T02:16:36.245Z,81.20
2022-07-26T02:22:05.871Z,81.10
2022-07-26T02:27:36.837Z,81.10
2022-07-26T02:33:08.197Z,81.10
2022-07-26T02:38:41.303Z,81.20
2022-07-26T02:44:12.980Z,81.40
2022-07-26T02:50:00.856Z,81.50
2022-07-26T02:55:37.991Z,81.60
2022-07-26T03:01:09.731Z,81.60
2022-07-26T03:06:40.683Z,81.70
2022-07-26T03:12:20.448Z,81.90
2022-07-26T03:17:51.210Z,82.20
2022-07-26T03:23:28.243Z,82.20
2022-07-26T03:29:04.061Z,82.20
2022-07-26T03:34:48.707Z,82.50
2022-07-26T03:40:19.160Z,82.50
2022-07-26T03:45:46.933Z,82.70
2022-07-26T03:51:14.708Z,83.10
2022-07-26T03:56:42.344Z,83.40
2022-07-26T04:02:09.985Z,83.70
2022-07-26T04:07:52.783Z,83.80
2022-07-26T04:13:23.951Z,84.20
2022-07-26T04:18:51.906Z,84.40
2022-07-26T04:24:19.520Z,84.40
2022-07-26T04:29:53.006Z,84.50
2022-07-26T04:35:20.793Z,84.70
2022-07-26T04:40:50.040Z,84.90
2022-07-26T04:46:19.290Z,85.10
2022-07-26T04:51:46.914Z,85.40
2022-07-26T04:57:14.588Z,85.50
2022-07-26T05:02:42.468Z,85.80
2022-07-26T05:08:10.955Z,85.90
2022-07-26T05:13:39.273Z,86.10
2022-07-26T05:19:07.005Z,86.30
2022-07-26T05:24:34.628Z,86.50
2022-07-26T05:30:02.485Z,86.60
2022-07-26T05:35:30.128Z,86.70
2022-07-26T05:40:57.707Z,86.90
2022-07-26T05:46:25.516Z,87.10
2022-07-26T05:51:56.898Z,87.20
2022-07-26T05:57:27.043Z,87.40
2022-07-26T06:02:54.669Z,87.40
2022-07-26T06:08:23.551Z,87.40
2022-07-26T06:13:56.335Z,87.70
2022-07-26T06:19:24.166Z,88.30
2022-07-26T06:24:51.971Z,88.00
2022-07-26T06:30:36.016Z,88.00
2022-07-26T06:36:03.740Z,88.00
2022-07-26T06:41:31.607Z,88.00
2022-07-26T06:46:59.172Z,87.90
2022-07-26T06:52:26.812Z,87.90
2022-07-26T06:57:54.359Z,87.90
2022-07-26T07:03:21.979Z,88.00
2022-07-26T07:08:49.643Z,88.10
2022-07-26T07:14:17.183Z,88.20
2022-07-26T07:19:44.827Z,88.40
2022-07-26T07:25:14.714Z,88.30
2022-07-26T07:30:43.653Z,88.50
2022-07-26T07:36:11.291Z,88.50
2022-07-26T07:41:39.183Z,88.80
2022-07-26T07:47:08.828Z,88.80
2022-07-26T07:52:36.456Z,88.80
2022-07-26T07:58:04.192Z,88.80
2022-07-26T08:03:38.796Z,89.00
2022-07-26T08:09:07.022Z,88.70
2022-07-26T08:14:35.223Z,88.80
2022-07-26T08:20:03.539Z,88.80
2022-07-26T08:25:31.321Z,88.70
2022-07-26T08:30:59.040Z,88.60
2022-07-26T08:36:32.343Z,88.90
2022-07-26T08:42:04.435Z,89.00
2022-07-26T08:47:37.996Z,89.20
2022-07-26T08:53:09.364Z,89.40
2022-07-26T08:58:37.093Z,89.60
2022-07-26T09:04:38.667Z,89.90
2022-07-26T09:10:14.219Z,90.00
2022-07-26T09:15:41.841Z,90.10
2022-07-26T09:21:32.086Z,90.10
2022-07-26T09:27:01.781Z,90.20
2022-07-26T09:32:29.367Z,90.30
2022-07-26T09:37:57.490Z,90.20
2022-07-26T09:43:36.732Z,90.40
2022-07-26T09:49:22.367Z,90.30
2022-07-26T09:54:50.206Z,90.20
2022-07-26T10:00:18.567Z,90.20
2022-07-26T10:05:46.325Z,90.30
2022-07-26T10:11:14.697Z,90.20
2022-07-26T10:16:42.429Z,90.10
2022-07-26T10:22:41.959Z,90.00
2022-07-26T10:28:24.878Z,89.90
2022-07-26T10:33:55.195Z,89.30
2022-07-26T10:39:24.140Z,89.40
2022-07-26T10:44:51.887Z,89.00
2022-07-26T10:50:33.536Z,88.30
2022-07-26T10:56:03.064Z,87.50
2022-07-26T11:01:42.478Z,86.30
2022-07-26T11:07:10.663Z,85.50
2022-07-26T11:12:39.755Z,84.40
2022-07-26T11:18:13.006Z,83.90
2022-07-26T11:23:49.883Z,82.40
2022-07-26T11:29:37.945Z,81.50
2022-07-26T11:35:08.139Z,80.00
2022-07-26T11:40:47.084Z,79.20
2022-07-26T11:46:16.077Z,78.30
2022-07-26T11:51:59.779Z,77.50
2022-07-26T11:57:32.614Z,77.20
2022-07-26T12:03:00.701Z,76.70
2022-07-26T12:08:47.601Z,77.10
2022-07-26T12:14:30.381Z,77.00
2022-07-26T12:20:18.394Z,76.70
2022-07-26T12:25:50.356Z,77.60
2022-07-26T12:31:31.805Z,76.80
2022-07-26T12:37:39.329Z,76.80
2022-07-26T12:43:08.634Z,76.20
2022-07-26T12:48:37.092Z,76.00
2022-07-26T12:54:06.522Z,75.80
2022-07-26T12:59:34.667Z,75.90
2022-07-26T13:05:04.491Z,75.70
2022-07-26T13:10:33.994Z,75.80
2022-07-26T13:16:04.541Z,75.90
2022-07-26T13:21:36.694Z,75.90
2022-07-26T13:27:06.160Z,75.50
2022-07-26T13:32:34.132Z,75.10
2022-07-26T13:38:02.303Z,74.40
2022-07-26T13:43:35.320Z,74.70
2022-07-26T13:49:04.733Z,74.50
2022-07-26T13:54:35.361Z,74.30
2022-07-26T14:00:04.592Z,74.10
2022-07-26T14:05:32.638Z,73.90
2022-07-26T14:11:00.255Z,73.80
2022-07-26T14:16:28.054Z,73.50
2022-07-26T14:21:59.304Z,73.70
2022-07-26T14:27:27.487Z,73.90
2022-07-26T14:32:55.139Z,73.70
2022-07-26T14:38:28.136Z,73.70
2022-07-26T14:43:57.585Z,73.60
2022-07-26T14:49:28.006Z,73.60
2022-07-26T14:54:55.722Z,73.50
2022-07-26T15:00:23.324Z,73.50
2022-07-26T15:05:51.355Z,73.80
2022-07-26T15:11:19.304Z,74.00
2022-07-26T15:16:47.188Z,73.90
2022-07-26T15:22:15.204Z,74.00
2022-07-26T15:27:43.680Z,74.20
2022-07-26T15:33:11.491Z,74.00
2022-07-26T15:38:44.535Z,74.00
2022-07-26T15:44:12.944Z,74.00
2022-07-26T15:49:40.997Z,74.10
2022-07-26T15:55:20.146Z,74.30
2022-07-26T16:00:49.489Z,74.60
2022-07-26T16:06:17.349Z,74.20
2022-07-26T16:11:46.048Z,74.30
2022-07-26T16:17:13.677Z,74.10
2022-07-26T16:22:46.172Z,73.60
2022-07-26T16:28:14.124Z,73.50
2022-07-26T16:33:46.325Z,73.70
2022-07-26T16:39:16.145Z,73.60
2022-07-26T16:44:44.181Z,73.60
2022-07-26T16:50:12.764Z,73.30
2022-07-26T16:55:44.766Z,73.00
2022-07-26T17:01:12.632Z,73.10
2022-07-26T17:06:40.315Z,73.00
2022-07-26T17:12:08.238Z,72.90
2022-07-26T17:17:35.865Z,73.00
2022-07-26T17:23:03.456Z,72.80
2022-07-26T17:28:31.079Z,72.40
2022-07-26T17:33:58.683Z,72.20
2022-07-26T17:39:50.797Z,71.90
2022-07-26T17:45:15.298Z,71.40
2022-07-26T17:50:42.815Z,71.40
2022-07-26T17:56:11.393Z,71.50
2022-07-26T18:01:39.058Z,71.50
2022-07-26T18:07:20.187Z,71.50
2022-07-26T18:12:47.807Z,71.50
2022-07-26T18:18:16.998Z,71.50
2022-07-26T18:24:06.700Z,71.60
2022-07-26T18:29:32.528Z,71.20
2022-07-26T18:35:01.512Z,71.10
2022-07-26T18:40:29.289Z,71.10
2022-07-26T18:45:57.090Z,70.90
2022-07-26T18:51:26.552Z,71.00
2022-07-26T18:56:56.465Z,71.00
2022-07-26T19:02:24.163Z,71.00
2022-07-26T19:07:52.185Z,71.10
2022-07-26T19:13:19.879Z,71.30
2022-07-26T19:18:50.791Z,71.30
2022-07-26T19:24:20.460Z,71.40
2022-07-26T19:29:48.724Z,71.60
2022-07-26T19:35:16.421Z,71.80
2022-07-26T19:40:45.381Z,72.10
2022-07-26T19:46:13.080Z,72.20
2022-07-26T19:51:48.815Z,72.20
2022-07-26T19:57:16.720Z,72.40
2022-07-26T20:02:44.560Z,72.50
2022-07-26T20:08:12.664Z,72.70
2022-07-26T20:13:40.298Z,72.80
2022-07-26T20:19:08.124Z,73.10
2022-07-26T20:24:38.504Z,73.10
2022-07-26T20:30:07.840Z,73.20
2022-07-26T20:35:36.370Z,73.40
2022-07-26T20:41:05.321Z,73.50
2022-07-26T20:46:39.925Z,73.80
2022-07-26T20:52:08.123Z,74.00
2022-07-26T20:57:36.841Z,74.20
2022-07-26T21:03:04.670Z,74.30
2022-07-26T21:08:33.334Z,74.50
2022-07-26T21:14:01.146Z,74.70
2022-07-26T21:19:30.875Z,75.00
2022-07-26T21:25:00.745Z,75.10
2022-07-26T21:30:28.541Z,75.30
2022-07-26T21:35:57.804Z,75.50
2022-07-26T21:41:25.435Z,75.60
2022-07-26T21:46:55.001Z,75.60
2022-07-26T21:52:23.886Z,75.90
2022-07-26T21:57:52.073Z,76.00
2022-07-26T22:03:20.103Z,76.40
2022-07-26T22:08:48.063Z,76.70
2022-07-26T22:14:17.495Z,76.80
2022-07-26T22:19:45.323Z,77.00
2022-07-26T22:25:13.027Z,77.10
2022-07-26T22:30:41.508Z,77.50
2022-07-26T22:36:09.916Z,77.70
2022-07-26T22:41:57.499Z,77.60
2022-07-26T22:47:26.238Z,77.80
2022-07-26T22:52:54.977Z,78.00
2022-07-26T22:58:22.663Z,78.10
2022-07-26T23:03:50.561Z,78.30
2022-07-26T23:09:18.174Z,78.40
2022-07-26T23:14:45.760Z,78.60
2022-07-26T23:20:13.808Z,78.60
2022-07-26T23:25:41.646Z,78.90
2022-07-26T23:31:11.583Z,78.90
2022-07-26T23:36:39.500Z,79.10
2022-07-26T23:42:07.338Z,79.20
2022-07-26T23:47:37.385Z,79.50
2022-07-26T23:53:05.426Z,79.60
2022-07-26T23:58:33.281Z,79.80
